• Join FlightAware (Why Join?)
  • Login
  • US Flag 
08:05AM EDT


 

Airport Tracker/Info


-or-


 

Live Flight TrackerFlight Track Log ✈ UAL255 ✈ 28-Aug-2014 ✈ KOMA - KDEN

Flight Track Log - Related Links

Times and Time Zones

All times are in EDT time to prevent confusion due to time zone crossing. See the UAL255 flight status page for this flight to view local times or setup timezone preferences in your user account.

Time Position Orientation Groundspeed Altitude Reporting Facility
EDT Latitude Longitude Course Direction KTS MPH feet Rate Location/Type
08:54AM 41.2906 -95.8894 181° South 157 181 1,600  Level Minneapolis Center
08:55AM 41.2572 -95.8906 181° South 172 198 2,600 1,800 Climbing Minneapolis Center
08:56AM 41.2033 -95.8969 185° South 224 258 4,600 2,520 Climbing Minneapolis Center
08:57AM 41.1431 -95.9228 198° South 239 275 7,500 2,640 Climbing Minneapolis Center
08:58AM 41.0772 -95.9644 206° Southwest 254 292 10,100 2,160 Climbing Minneapolis Center
08:59AM 40.9986 -96.0011 199° South 284 327 12,000 2,220 Climbing Minneapolis Center
09:00AM 40.9167 -96.0506 205° Southwest 313 360 14,700 2,580 Climbing Minneapolis Center
09:01AM 40.8428 -96.1119 212° Southwest 315 362 17,300 2,700 Climbing Minneapolis Center
09:02AM 40.7586 -96.1811 212° Southwest 303 349 20,300 1,740 Climbing Minneapolis Center
09:03AM 40.6867 -96.2447 214° Southwest 305 351 20,900 420 Climbing Minneapolis Center
09:04AM 40.6783 -96.3792 265° West 361 415 21,200 1,500 Climbing Minneapolis Center
09:05AM 40.6861 -96.5206 274° West 382 440 24,100 2,160 Climbing Minneapolis Center
09:06AM 40.7367 -96.6500 297° West 389 448 25,700 1,200 Climbing Minneapolis Center
09:07AM 40.7950 -96.7822 300° West 408 470 26,600 960 Climbing Minneapolis Center
09:08AM 40.8250 -96.9278 285° West 420 483 27,700 840 Climbing Minneapolis Center
09:09AM 40.8253 -97.0794 270° West 413 475 28,400 840 Climbing Minneapolis Center
09:10AM 40.8258 -97.2336 270° West 417 480 29,500 1,140 Climbing Minneapolis Center
09:11AM 40.8261 -97.4006 270° West 424 488 30,800 1,200 Climbing Minneapolis Center
09:12AM 40.8267 -97.5550 270° West 424 488 32,000 1,140 Climbing Minneapolis Center
09:13AM 40.8269 -97.7089 270° West 423 487 33,200 1,200 Climbing Minneapolis Center
09:14AM 40.8264 -97.8925 270° West 419 482 34,500 1,200 Climbing Minneapolis Center
09:15AM 40.8256 -98.0433 270° West 415 478 35,700 720 Climbing Minneapolis Center
09:16AM 40.8244 -98.1939 269° West 414 476 36,000 120 Climbing Minneapolis Center
09:17AM 40.8236 -98.3514 270° West 421 484 36,000  Level Minneapolis Center
09:18AM 40.8225 -98.5000 269° West 432 497 36,000  Level Minneapolis Center
09:19AM 40.8203 -98.6581 269° West 432 497 36,000  Level Minneapolis Center
09:20AM 40.8189 -98.8506 270° West 433 498 36,000  Level Minneapolis Center
09:21AM 40.8175 -99.0122 269° West 436 502 36,000  Level Minneapolis Center
09:22AM 40.8150 -99.1619 269° West 437 503 36,000  Level Minneapolis Center
09:23AM 40.8133 -99.3247 269° West 437 503 36,000  Level Minneapolis Center
09:25AM 40.8114 -99.4861 269° West 438 504 36,000  Level Minneapolis Center
09:26AM 40.8083 -99.6483 269° West 438 504 36,000  Level Minneapolis Center
09:27AM 40.8058 -99.8433 269° West 439 505 36,000  Level Minneapolis Center
09:28AM 40.8017 -100.0064 268° West 440 506 36,000  Level Minneapolis Center
09:29AM 40.7981 -100.1700 268° West 442 509 36,000  Level Minneapolis Center
09:30AM 40.7917 -100.3336 267° West 442 509 36,000  Level Minneapolis Center
09:31AM 40.7686 -100.4914 259° West 442 509 36,000  Level Minneapolis Center
09:32AM 40.7411 -100.6456 257° West 440 506 36,000  Level Minneapolis Center
09:33AM 40.7042 -100.8744 258° West 437 503 36,000  Level Denver Center
09:34AM 40.6822 -101.0233 259° West 433 498 36,000  Level Denver Center
09:35AM 40.6592 -101.1714 258° West 430 495 36,000  Level Denver Center
09:36AM 40.6317 -101.3444 258° West 431 496 36,000  Level Denver Center
09:37AM 40.6081 -101.4931 258° West 431 496 36,100  Climbing Denver Center
09:38AM 40.5806 -101.6647 258° West 430 495 36,000 -60 Descending Denver Center
09:39AM 40.5569 -101.8119 258° West 430 495 36,000  Level Denver Center
09:40AM 40.5328 -101.9578 258° West 429 494 36,000  Level Denver Center
09:41AM 40.5039 -102.1264 257° West 428 493 36,000  Level Denver Center
09:42AM 40.4797 -102.2744 258° West 430 495 36,000  Level Denver Center
09:43AM 40.4503 -102.4464 257° West 431 496 36,000 -420 Level Denver Center
09:44AM 40.4253 -102.5939 257° West 432 497 35,200 -1,680 Descending Denver Center
09:45AM 40.4000 -102.7383 257° West 431 496 32,600 -2,400 Descending Denver Center
09:46AM 40.3736 -102.8947 258° West 438 504 30,400 -2,160 Descending Denver Center
09:47AM 40.3472 -103.0475 257° West 436 502 28,200 -2,400 Descending Denver Center
09:48AM 40.3164 -103.2256 257° West 422 486 25,600 -2,400 Descending Denver Center
09:49AM 40.2906 -103.3706 257° West 414 476 23,400 -2,100 Descending Denver Center
09:50AM 40.2647 -103.5111 257° West 404 465 21,400 -1,860 Descending Denver Center
09:51AM 40.2397 -103.6497 257° West 397 457 19,700 -1,680 Descending Denver Center
09:52AM 40.2114 -103.7908 255° West 377 434 18,000 -1,320 Descending Denver Center
09:54AM 40.2064 -103.9094 267° West 334 384 17,100 -1,320 Descending Denver Center
09:55AM 40.2161 -104.0250 276° West 323 372 15,400 -1,620 Descending Denver Center
09:56AM 40.2269 -104.1389 277° West 320 368 13,900 -1,260 Descending Denver Center
09:57AM 40.2375 -104.2539 277° West 299 344 12,900 -840 Descending Denver Center
09:58AM 40.2467 -104.3492 277° West 272 313 12,300 -900 Descending Denver Center
09:59AM 40.2542 -104.4350 277° West 246 283 11,100 -1,320 Descending Denver Center
10:00AM 40.2492 -104.5303 266° West 244 281 9,700 -1,080 Descending Denver Center
10:01AM 40.2378 -104.6161 260° West 243 280 9,000 -660 Descending Denver Center
10:02AM 40.1939 -104.6808 228° Southwest 244 281 8,400 -540 Descending Denver Center
10:03AM 40.1242 -104.6842 182° South 249 287 7,900 -360 Descending Denver Center
10:04AM 40.0547 -104.6847 180° South 250 288 7,700 -540 Descending Denver Center
10:05AM 39.9811 -104.6856 180° South 246 283 6,900 -780 Descending Denver Center
10:06AM 39.9356 -104.6861 181° South 166 191 6,100 -840 Descending Denver Center
10:07AM 39.8942 -104.6867 181° South 153 176 5,300 -840 Descending Denver Center